createdAt,value
2023-02-01T00:00:17.505Z,102037.91
2023-02-01T00:02:45.401Z,102040.56
2023-02-01T00:05:13.580Z,102030.03
2023-02-01T00:07:41.241Z,102029.22
2023-02-01T00:10:10.183Z,102021.34
2023-02-01T00:12:38.918Z,102021.34
2023-02-01T00:15:07.622Z,102009.81
2023-02-01T00:17:36.689Z,102017.00
2023-02-01T00:20:05.143Z,102016.19
2023-02-01T00:22:32.839Z,102001.97
2023-02-01T00:25:00.541Z,101996.78
2023-02-01T00:27:28.248Z,101992.44
2023-02-01T00:29:56.458Z,101975.72
2023-02-01T00:32:24.186Z,101978.41
2023-02-01T00:34:53.264Z,101985.78
2023-02-01T00:37:20.955Z,101993.97
2023-02-01T00:39:48.701Z,101997.66
2023-02-01T00:42:16.406Z,101994.81
2023-02-01T00:44:44.098Z,101972.75
2023-02-01T00:47:11.773Z,101969.25
2023-02-01T00:49:39.550Z,101969.41
2023-02-01T00:52:08.587Z,101982.13
2023-02-01T00:54:37.774Z,101990.16
2023-02-01T00:57:05.500Z,101991.34
2023-02-01T00:59:33.210Z,101994.84
2023-02-01T01:02:01.003Z,102000.19
2023-02-01T01:04:28.699Z,101997.69
2023-02-01T01:06:56.383Z,101996.69
2023-02-01T01:09:25.438Z,101995.19
2023-02-01T01:11:53.689Z,102004.88
2023-02-01T01:14:21.404Z,102004.22
2023-02-01T01:16:51.512Z,102004.22
2023-02-01T01:19:19.239Z,102009.56
2023-02-01T01:21:46.917Z,102013.25
2023-02-01T01:24:14.707Z,102011.59
2023-02-01T01:26:43.838Z,102000.22
2023-02-01T01:29:11.929Z,101992.19
2023-02-01T01:31:39.682Z,101987.03
2023-02-01T01:34:07.436Z,101985.38
2023-02-01T01:36:35.187Z,102000.56
2023-02-01T01:39:02.914Z,102000.56
2023-02-01T01:41:33.560Z,101994.38
2023-02-01T01:44:04.068Z,101993.72
2023-02-01T01:46:33.830Z,102003.75
2023-02-01T01:49:07.750Z,101988.59
2023-02-01T01:51:42.562Z,102009.13
2023-02-01T01:54:18.179Z,102006.63
2023-02-01T01:56:51.241Z,102013.81
2023-02-01T01:59:21.686Z,102015.63
2023-02-01T02:01:49.815Z,102006.78
2023-02-01T02:04:18.205Z,102012.31
2023-02-01T02:06:52.245Z,102015.16
2023-02-01T02:09:20.025Z,102014.47
2023-02-01T02:11:47.764Z,102011.47
2023-02-01T02:14:18.658Z,101999.28
2023-02-01T02:17:10.035Z,101998.09
2023-02-01T02:20:07.095Z,101998.28
2023-02-01T02:23:07.574Z,102000.94
2023-02-01T02:26:03.153Z,101994.94
2023-02-01T02:29:02.580Z,101977.22
2023-02-01T02:31:49.027Z,101970.22
2023-02-01T02:34:24.089Z,101974.72
2023-02-01T02:37:03.998Z,101950.84
2023-02-01T02:39:40.497Z,101956.19
2023-02-01T02:42:32.704Z,101958.69
2023-02-01T02:45:25.232Z,101964.19
2023-02-01T02:47:58.448Z,101969.53
2023-02-01T02:50:48.942Z,101958.19
2023-02-01T02:53:37.266Z,101954.69
2023-02-01T02:56:25.292Z,101961.03
2023-02-01T02:59:12.151Z,101961.03
2023-02-01T03:01:59.363Z,101963.88
2023-02-01T03:04:27.224Z,101963.03
2023-02-01T03:06:56.621Z,101948.69
2023-02-01T03:09:31.756Z,101948.84
2023-02-01T03:12:21.855Z,101959.53
2023-02-01T03:14:54.675Z,101947.19
2023-02-01T03:17:29.627Z,101949.03
2023-02-01T03:20:01.814Z,101946.53
2023-02-01T03:22:32.830Z,101946.69
2023-02-01T03:25:08.413Z,101950.19
2023-02-01T03:27:41.410Z,101948.53
2023-02-01T03:30:18.892Z,101941.53
2023-02-01T03:33:02.173Z,101946.88
2023-02-01T03:35:34.643Z,101948.53
2023-02-01T03:38:14.661Z,101955.53
2023-02-01T03:40:47.156Z,101951.19
2023-02-01T03:43:19.789Z,101946.69
2023-02-01T03:45:53.907Z,101947.69
2023-02-01T03:48:25.474Z,101948.53
2023-02-01T03:50:58.310Z,101941.03
2023-02-01T03:53:28.663Z,101950.38
2023-02-01T03:55:57.491Z,101946.03
2023-02-01T03:58:25.694Z,101954.88
2023-02-01T04:00:56.016Z,101950.53
2023-02-01T04:03:24.283Z,101939.84
2023-02-01T04:05:52.092Z,101936.50
2023-02-01T04:08:20.216Z,101931.34
2023-02-01T04:10:49.559Z,101939.19
2023-02-01T04:13:17.264Z,101953.38
2023-02-01T04:15:44.975Z,101937.53
2023-02-01T04:18:12.687Z,101931.34
2023-02-01T04:20:40.377Z,101920.66
2023-02-01T04:23:08.111Z,101922.31
2023-02-01T04:25:35.783Z,101911.63
2023-02-01T04:28:05.778Z,101917.97
2023-02-01T04:30:33.559Z,101925.16
2023-02-01T04:33:01.420Z,101923.50
2023-02-01T04:35:29.121Z,101929.00
2023-02-01T04:37:56.822Z,101934.19
2023-02-01T04:40:24.944Z,101935.19
2023-02-01T04:42:52.925Z,101926.34
2023-02-01T04:45:21.962Z,101927.34
2023-02-01T04:47:50.036Z,101932.69
2023-02-01T04:50:18.330Z,101936.38
2023-02-01T04:52:47.188Z,101938.03
2023-02-01T04:55:15.333Z,101935.53
2023-02-01T04:57:43.344Z,101937.38
2023-02-01T05:00:12.713Z,101940.22
2023-02-01T05:02:41.915Z,101942.22
2023-02-01T05:05:10.464Z,101943.22
2023-02-01T05:07:38.145Z,101953.09
2023-02-01T05:10:06.252Z,101947.75
2023-02-01T05:12:51.317Z,101958.59
2023-02-01T05:15:19.022Z,101950.78
2023-02-01T05:17:48.090Z,101953.47
2023-02-01T05:20:16.015Z,101948.13
2023-02-01T05:22:43.781Z,101943.59
2023-02-01T05:25:11.475Z,101947.28
2023-02-01T05:27:39.235Z,101941.94
2023-02-01T05:30:08.527Z,101938.44
2023-02-01T05:32:36.365Z,101929.75
2023-02-01T05:35:05.928Z,101930.59
2023-02-01T05:37:33.665Z,101926.06
2023-02-01T05:40:01.365Z,101916.56
2023-02-01T05:42:29.112Z,101927.09
2023-02-01T05:44:56.808Z,101921.06
2023-02-01T05:47:24.495Z,101931.59
2023-02-01T05:49:52.148Z,101933.25
2023-02-01T05:52:21.213Z,101939.44
2023-02-01T05:54:49.860Z,101939.44
2023-02-01T05:57:17.823Z,101936.75
2023-02-01T05:59:46.613Z,101945.78
2023-02-01T06:02:14.559Z,101941.09
2023-02-01T06:04:42.255Z,101945.44
2023-02-01T06:07:11.344Z,101948.28
2023-02-01T06:09:40.577Z,101946.44
2023-02-01T06:12:08.600Z,101941.28
2023-02-01T06:14:36.296Z,101930.59
2023-02-01T06:17:04.002Z,101941.28
2023-02-01T06:19:31.711Z,101937.59
2023-02-01T06:21:59.388Z,101938.44
2023-02-01T06:24:27.132Z,101942.09
2023-02-01T06:26:56.223Z,101946.63
2023-02-01T06:29:23.954Z,101944.94
2023-02-01T06:31:51.853Z,101959.16
2023-02-01T06:34:22.205Z,101954.81
2023-02-01T06:36:50.052Z,101954.63
2023-02-01T06:39:17.836Z,101945.97
2023-02-01T06:41:48.223Z,101959.31
2023-02-01T06:44:17.998Z,101960.16
2023-02-01T06:46:45.776Z,101954.97
2023-02-01T06:49:13.587Z,101961.31
2023-02-01T06:51:41.322Z,101963.84
2023-02-01T06:54:09.077Z,101966.66
2023-02-01T06:56:36.786Z,101968.50
2023-02-01T06:59:05.874Z,101960.50
2023-02-01T07:01:35.373Z,101957.00
2023-02-01T07:04:03.117Z,101965.84
2023-02-01T07:06:31.089Z,101966.66
2023-02-01T07:08:59.569Z,101964.16
2023-02-01T07:11:28.985Z,101968.69
2023-02-01T07:13:56.682Z,101960.50
2023-02-01T07:16:24.780Z,101962.84
2023-02-01T07:18:54.491Z,101971.84
2023-02-01T07:21:22.403Z,101957.66
2023-02-01T07:23:50.103Z,101964.84
2023-02-01T07:26:18.351Z,101953.31
2023-02-01T07:28:47.676Z,101957.00
2023-02-01T07:31:19.275Z,101964.00
2023-02-01T07:33:47.577Z,101964.84
2023-02-01T07:36:18.332Z,101962.50
2023-02-01T07:38:47.887Z,101971.38
2023-02-01T07:41:15.923Z,101977.72
2023-02-01T07:43:43.709Z,101975.03
2023-02-01T07:46:12.265Z,101978.56
2023-02-01T07:48:40.265Z,101975.72
2023-02-01T07:51:10.598Z,101973.03
2023-02-01T07:53:39.861Z,101979.22
2023-02-01T07:56:13.896Z,101983.38
2023-02-01T07:58:41.656Z,101982.56
2023-02-01T08:01:22.116Z,101983.22
2023-02-01T08:03:50.540Z,101971.69
2023-02-01T08:06:18.335Z,101972.53
2023-02-01T08:08:47.812Z,101980.38
2023-02-01T08:11:16.243Z,101986.72
2023-02-01T08:13:44.327Z,102002.59
2023-02-01T08:16:13.972Z,101991.56
2023-02-01T08:18:42.635Z,102001.75
2023-02-01T08:21:12.947Z,102007.94
2023-02-01T08:23:42.059Z,102000.09
2023-02-01T08:26:14.523Z,101995.56
2023-02-01T08:28:44.399Z,102002.75
2023-02-01T08:31:15.759Z,102000.91
2023-02-01T08:33:44.948Z,101993.75
2023-02-01T08:36:13.170Z,102009.59
2023-02-01T08:38:41.722Z,102007.44
2023-02-01T08:41:12.223Z,102008.09
2023-02-01T08:43:39.940Z,102012.09
2023-02-01T08:46:08.054Z,102017.28
2023-02-01T08:48:36.910Z,102009.09
2023-02-01T08:51:06.076Z,101999.41
2023-02-01T08:53:33.967Z,102003.75
2023-02-01T08:56:02.617Z,102009.09
2023-02-01T08:58:31.804Z,101997.38
2023-02-01T09:00:59.557Z,101999.06
2023-02-01T09:03:27.567Z,101982.66
2023-02-01T09:06:02.600Z,101981.63
2023-02-01T09:08:30.678Z,101977.41
2023-02-01T09:11:03.204Z,101979.34
2023-02-01T09:13:32.867Z,101965.72
2023-02-01T09:16:00.974Z,101964.19
2023-02-01T09:18:28.807Z,101954.50
2023-02-01T09:20:56.526Z,101959.03
2023-02-01T09:23:24.436Z,101954.84
2023-02-01T09:25:52.534Z,101953.81
2023-02-01T09:28:21.017Z,101946.22
2023-02-01T09:30:50.117Z,101951.47
2023-02-01T09:33:18.670Z,101960.56
2023-02-01T09:35:46.428Z,101936.81
2023-02-01T09:38:14.188Z,101941.91
2023-02-01T09:40:48.082Z,101956.53
2023-02-01T09:43:32.675Z,101956.69
2023-02-01T09:46:18.517Z,101953.66
2023-02-01T09:48:47.705Z,101962.78
2023-02-01T09:51:18.819Z,101959.56
2023-02-01T09:53:51.636Z,101954.78
2023-02-01T09:56:25.679Z,101957.63
2023-02-01T09:59:01.171Z,101954.78
2023-02-01T10:01:31.327Z,101952.19
2023-02-01T10:04:04.949Z,101948.22
2023-02-01T10:06:40.320Z,101939.06
2023-02-01T10:09:31.920Z,101941.00
2023-02-01T10:12:17.904Z,101952.66
2023-02-01T10:14:56.956Z,101954.59
2023-02-01T10:17:40.774Z,101955.41
2023-02-01T10:20:17.590Z,101962.44
2023-02-01T10:23:11.411Z,101968.53
2023-02-01T10:25:43.954Z,101977.88
2023-02-01T10:28:17.648Z,101965.94
2023-02-01T10:30:48.195Z,101990.00
2023-02-01T10:33:24.076Z,101989.00
2023-02-01T10:35:57.557Z,101994.75
2023-02-01T10:38:29.035Z,101986.59
2023-02-01T10:41:02.317Z,101987.88
2023-02-01T10:43:30.536Z,101989.69
2023-02-01T10:45:59.077Z,101993.84
2023-02-01T10:48:30.257Z,101986.66
2023-02-01T10:51:01.980Z,102003.41
2023-02-01T10:53:38.251Z,101969.78
2023-02-01T10:56:09.654Z,101967.91
2023-02-01T10:58:44.796Z,101965.03
2023-02-01T11:01:19.437Z,101959.22
2023-02-01T11:03:55.690Z,101969.09
2023-02-01T11:06:31.216Z,101963.19
2023-02-01T11:09:01.645Z,101960.97
2023-02-01T11:11:30.172Z,101949.34
2023-02-01T11:14:00.483Z,101956.16
2023-02-01T11:16:35.450Z,101945.53
2023-02-01T11:19:05.382Z,101936.09
2023-02-01T11:21:33.729Z,101938.88
2023-02-01T11:24:04.813Z,101924.84
2023-02-01T11:26:33.976Z,101933.59
2023-02-01T11:29:05.228Z,101924.63
2023-02-01T11:31:35.948Z,101933.69
2023-02-01T11:34:10.539Z,101937.06
2023-02-01T11:36:38.953Z,101928.75
2023-02-01T11:39:19.527Z,101923.94
2023-02-01T11:42:00.523Z,101920.72
2023-02-01T11:44:33.914Z,101917.88
2023-02-01T11:47:32.375Z,101915.31
2023-02-01T11:50:03.662Z,101920.94
2023-02-01T11:52:43.945Z,101917.25
2023-02-01T11:55:31.416Z,101923.44
2023-02-01T11:58:05.136Z,101914.53
2023-02-01T12:00:46.331Z,101910.34
2023-02-01T12:03:51.516Z,101923.88
2023-02-01T12:06:30.788Z,101904.47
2023-02-01T12:09:27.810Z,101907.91
2023-02-01T12:12:05.487Z,101894.50
2023-02-01T12:14:58.373Z,101898.13
2023-02-01T12:17:54.922Z,101906.25
2023-02-01T12:20:53.605Z,101886.38
2023-02-01T12:23:38.907Z,101885.28
2023-02-01T12:26:24.591Z,101900.97
2023-02-01T12:29:13.856Z,101904.97
2023-02-01T12:31:53.756Z,101894.13
2023-02-01T12:34:34.499Z,101896.00
2023-02-01T12:37:10.532Z,101907.25
2023-02-01T12:39:43.036Z,101898.56
2023-02-01T12:42:18.302Z,101901.53
2023-02-01T12:44:51.231Z,101899.06
2023-02-01T12:47:25.005Z,101887.28
2023-02-01T12:50:01.844Z,101891.63
2023-02-01T12:52:37.377Z,101881.19
2023-02-01T12:55:18.490Z,101882.38
2023-02-01T12:57:50.510Z,101878.44
2023-02-01T13:00:27.314Z,101889.59
2023-02-01T13:02:58.099Z,101887.88
2023-02-01T13:05:33.256Z,101885.66
2023-02-01T13:08:04.726Z,101895.03
2023-02-01T13:10:38.470Z,101878.91
2023-02-01T13:13:13.344Z,101879.03
2023-02-01T13:15:44.752Z,101874.34
2023-02-01T13:18:18.776Z,101877.69
2023-02-01T13:20:55.259Z,101872.41
2023-02-01T13:23:29.693Z,101866.78
2023-02-01T13:25:58.811Z,101885.44
2023-02-01T13:28:29.841Z,101873.25
2023-02-01T13:31:26.657Z,101878.78
2023-02-01T13:34:07.247Z,101872.50
2023-02-01T13:36:57.000Z,101869.03
2023-02-01T13:39:50.259Z,101874.81
2023-02-01T13:42:23.282Z,101877.63
2023-02-01T13:44:53.934Z,101880.66
2023-02-01T13:47:27.727Z,101885.56
2023-02-01T13:49:58.569Z,101884.91
2023-02-01T13:52:30.961Z,101884.25
2023-02-01T13:55:17.839Z,101875.38
2023-02-01T13:57:47.941Z,101881.09
2023-02-01T14:00:31.452Z,101891.75
2023-02-01T14:03:16.761Z,101881.09
2023-02-01T14:06:15.899Z,101882.13
2023-02-01T14:09:07.604Z,101886.00
2023-02-01T14:11:41.663Z,101897.72
2023-02-01T14:14:45.766Z,101897.72
2023-02-01T14:17:35.414Z,101904.94
2023-02-01T14:20:49.747Z,101900.59
2023-02-01T14:23:26.416Z,101908.63
2023-02-01T14:26:12.789Z,101908.19
2023-02-01T14:28:57.917Z,101908.19
2023-02-01T14:31:42.361Z,101905.31
2023-02-01T14:34:22.612Z,101898.56
2023-02-01T14:36:56.002Z,101901.25
2023-02-01T14:39:28.727Z,101903.16
2023-02-01T14:42:02.368Z,101903.69
2023-02-01T14:44:37.054Z,101909.03
2023-02-01T14:47:07.679Z,101903.47
2023-02-01T14:49:40.169Z,101908.31
2023-02-01T14:52:14.902Z,101908.53
2023-02-01T14:54:43.354Z,101903.38
2023-02-01T14:57:19.002Z,101910.22
2023-02-01T14:59:47.608Z,101914.84
2023-02-01T15:02:25.190Z,101910.22
2023-02-01T15:04:58.007Z,101918.16
2023-02-01T15:07:28.040Z,101919.56
2023-02-01T15:09:58.863Z,101917.44
2023-02-01T15:12:31.536Z,101924.16
2023-02-01T15:15:14.013Z,101901.44
2023-02-01T15:17:42.633Z,101917.88
2023-02-01T15:20:22.153Z,101914.59
2023-02-01T15:22:56.414Z,101920.50
2023-02-01T15:25:26.512Z,101923.16
2023-02-01T15:27:54.760Z,101924.38
2023-02-01T15:30:24.948Z,101927.78
2023-02-01T15:32:53.381Z,101925.56
2023-02-01T15:35:43.453Z,101935.63
2023-02-01T15:38:22.097Z,101926.00
2023-02-01T15:40:57.737Z,101937.19
2023-02-01T15:43:26.505Z,101937.84
2023-02-01T15:45:57.637Z,101947.53
2023-02-01T15:48:27.016Z,101942.38
2023-02-01T15:50:57.772Z,101938.03
2023-02-01T15:53:31.903Z,101949.22
2023-02-01T15:56:02.646Z,101921.69
2023-02-01T15:58:32.750Z,101929.34
2023-02-01T16:01:05.432Z,101934.25
2023-02-01T16:03:39.202Z,101932.31
2023-02-01T16:06:12.079Z,101938.50
2023-02-01T16:08:51.425Z,101934.53
2023-02-01T16:11:26.529Z,101930.56
2023-02-01T16:13:54.268Z,101931.09
2023-02-01T16:16:22.095Z,101927.13
2023-02-01T16:18:49.831Z,101936.75
2023-02-01T16:21:19.001Z,101948.66
2023-02-01T16:23:50.932Z,101943.84
2023-02-01T16:26:18.967Z,101954.97
2023-02-01T16:28:46.933Z,101955.13
2023-02-01T16:31:20.201Z,101947.28
2023-02-01T16:33:50.578Z,101941.28
2023-02-01T16:36:20.376Z,101952.34
2023-02-01T16:38:50.252Z,101940.81
2023-02-01T16:41:20.570Z,101961.59
2023-02-01T16:43:51.916Z,101962.59
2023-02-01T16:46:22.217Z,101960.75
2023-02-01T16:48:53.822Z,101963.63
2023-02-01T16:51:23.989Z,101970.81
2023-02-01T16:53:54.853Z,101975.34
2023-02-01T16:56:24.393Z,101979.88
2023-02-01T16:58:52.307Z,101971.84
2023-02-01T17:01:21.052Z,101975.53
2023-02-01T17:03:50.975Z,101971.84
2023-02-01T17:06:21.228Z,101988.75
2023-02-01T17:08:54.511Z,101984.56
2023-02-01T17:11:22.548Z,101987.91
2023-02-01T17:13:50.266Z,101986.25
2023-02-01T17:16:28.551Z,101973.69
2023-02-01T17:18:59.402Z,101973.69
2023-02-01T17:21:30.120Z,101985.22
2023-02-01T17:24:01.198Z,101987.66
2023-02-01T17:26:29.122Z,101979.63
2023-02-01T17:28:57.913Z,101987.69
2023-02-01T17:31:25.712Z,101996.59
2023-02-01T17:33:53.503Z,101991.69
2023-02-01T17:36:21.237Z,101990.31
2023-02-01T17:39:03.661Z,101985.94
2023-02-01T17:41:34.610Z,102002.59
2023-02-01T17:44:03.185Z,102000.28
2023-02-01T17:46:32.498Z,102003.25
2023-02-01T17:49:01.405Z,102014.25
2023-02-01T17:51:31.839Z,102010.56
2023-02-01T17:53:59.640Z,102010.19
2023-02-01T17:56:27.348Z,102024.69
2023-02-01T17:59:00.108Z,102021.91
2023-02-01T18:01:27.867Z,102024.13
2023-02-01T18:03:55.689Z,102013.31
2023-02-01T18:06:26.493Z,102016.72
2023-02-01T18:08:54.804Z,102032.16
2023-02-01T18:11:24.976Z,102007.22
2023-02-01T18:13:55.969Z,102029.50
2023-02-01T18:16:25.655Z,102027.19
2023-02-01T18:18:54.042Z,102031.53
2023-02-01T18:21:23.967Z,102019.50
2023-02-01T18:23:51.683Z,102019.25
2023-02-01T18:26:20.474Z,102005.66
2023-02-01T18:28:48.345Z,102002.78
2023-02-01T18:31:25.740Z,102009.00
2023-02-01T18:33:55.388Z,102017.50
2023-02-01T18:36:23.258Z,102012.94
2023-02-01T18:38:51.060Z,102004.03
2023-02-01T18:41:21.615Z,102003.66
2023-02-01T18:43:50.106Z,102011.25
2023-02-01T18:46:18.228Z,102013.03
2023-02-01T18:48:47.342Z,102015.53
2023-02-01T18:51:19.871Z,102020.38
2023-02-01T18:53:48.257Z,102012.97
2023-02-01T18:56:18.373Z,102013.72
2023-02-01T18:58:46.496Z,102016.28
2023-02-01T19:01:17.328Z,102021.38
2023-02-01T19:03:54.152Z,102007.50
2023-02-01T19:06:25.676Z,101999.19
2023-02-01T19:08:56.091Z,102009.44
2023-02-01T19:11:23.921Z,102021.56
2023-02-01T19:13:51.997Z,102018.41
2023-02-01T19:16:19.792Z,102012.56
2023-02-01T19:18:52.079Z,102010.06
2023-02-01T19:21:19.888Z,102014.78
2023-02-01T19:23:47.684Z,102003.41
2023-02-01T19:26:17.439Z,102024.22
2023-02-01T19:28:47.868Z,102011.81
2023-02-01T19:31:16.750Z,102019.84
2023-02-01T19:33:44.563Z,102016.34
2023-02-01T19:36:13.611Z,102016.53
2023-02-01T19:38:41.563Z,102014.03
2023-02-01T19:41:09.374Z,102008.84
2023-02-01T19:43:39.588Z,102010.69
2023-02-01T19:46:07.367Z,102021.41
2023-02-01T19:48:35.273Z,102019.75
2023-02-01T19:51:04.222Z,102018.09
2023-02-01T19:53:33.407Z,102025.28
2023-02-01T19:56:01.704Z,102013.91
2023-02-01T19:58:30.719Z,102030.00
2023-02-01T20:00:59.772Z,102028.16
2023-02-01T20:03:28.557Z,102020.28
2023-02-01T20:05:57.791Z,102022.97
2023-02-01T20:08:26.008Z,102023.81
2023-02-01T20:10:56.080Z,102019.28
2023-02-01T20:13:23.854Z,102016.78
2023-02-01T20:15:57.170Z,102021.13
2023-02-01T20:18:25.135Z,102015.78
2023-02-01T20:20:56.423Z,102021.31
2023-02-01T20:23:24.488Z,102020.28
2023-02-01T20:25:53.243Z,102024.00
2023-02-01T20:28:22.337Z,102027.69
2023-02-01T20:30:50.044Z,102016.97
2023-02-01T20:33:18.718Z,102028.53
2023-02-01T20:35:46.706Z,102028.69
2023-02-01T20:38:15.235Z,102026.03
2023-02-01T20:40:42.903Z,102018.81
2023-02-01T20:43:10.654Z,102042.09
2023-02-01T20:45:41.937Z,102023.34
2023-02-01T20:48:10.580Z,102030.53
2023-02-01T20:50:39.076Z,102039.25
2023-02-01T20:53:06.919Z,102032.03
2023-02-01T20:55:34.593Z,102035.72
2023-02-01T20:58:02.324Z,102038.41
2023-02-01T21:00:31.172Z,102039.41
2023-02-01T21:03:00.282Z,102043.59
2023-02-01T21:05:39.855Z,102044.59
2023-02-01T21:08:08.996Z,102042.75
2023-02-01T21:10:37.831Z,102062.34
2023-02-01T21:13:05.843Z,102060.03
2023-02-01T21:15:36.148Z,102057.53
2023-02-01T21:18:06.814Z,102058.19
2023-02-01T21:20:34.552Z,102058.00
2023-02-01T21:23:02.346Z,102057.34
2023-02-01T21:25:30.066Z,102062.72
2023-02-01T21:27:57.813Z,102057.34
2023-02-01T21:30:25.647Z,102048.47
2023-02-01T21:32:53.360Z,102053.19
2023-02-01T21:35:22.698Z,102067.41
2023-02-01T21:37:50.798Z,102062.06
2023-02-01T21:40:18.729Z,102060.38
2023-02-01T21:42:46.736Z,102062.22
2023-02-01T21:45:15.251Z,102067.59
2023-02-01T21:47:43.690Z,102062.22
2023-02-01T21:50:16.716Z,102069.44
2023-02-01T21:52:46.132Z,102069.25
2023-02-01T21:55:14.601Z,102070.09
2023-02-01T21:57:42.420Z,102073.78
2023-02-01T22:00:13.444Z,102073.13
2023-02-01T22:02:41.812Z,102071.47
2023-02-01T22:05:11.133Z,102072.31
2023-02-01T22:07:38.890Z,102081.84
2023-02-01T22:10:08.847Z,102085.53
2023-02-01T22:12:36.576Z,102089.22
2023-02-01T22:15:04.522Z,102083.03
2023-02-01T22:17:32.540Z,102090.22
2023-02-01T22:20:00.266Z,102091.25
2023-02-01T22:22:27.931Z,102084.03
2023-02-01T22:24:55.622Z,102086.72
2023-02-01T22:27:33.192Z,102090.41
2023-02-01T22:30:13.592Z,102097.63
2023-02-01T22:32:41.302Z,102098.66
2023-02-01T22:35:09.757Z,102115.09
2023-02-01T22:37:37.523Z,102117.59
2023-02-01T22:40:05.758Z,102107.72
2023-02-01T22:42:34.893Z,102107.88
2023-02-01T22:45:04.509Z,102105.22
2023-02-01T22:47:32.275Z,102102.16
2023-02-01T22:49:59.968Z,102084.66
2023-02-01T22:52:27.665Z,102100.69
2023-02-01T22:54:55.923Z,102101.53
2023-02-01T22:57:23.611Z,102104.19
2023-02-01T22:59:52.692Z,102106.88
2023-02-01T23:02:20.425Z,102106.03
2023-02-01T23:04:48.206Z,102109.56
2023-02-01T23:07:15.938Z,102104.19
2023-02-01T23:09:43.649Z,102105.03
2023-02-01T23:12:11.365Z,102104.00
2023-02-01T23:14:59.184Z,102102.34
2023-02-01T23:17:28.330Z,102103.19
2023-02-01T23:19:56.053Z,102105.03
2023-02-01T23:22:23.741Z,102100.69
2023-02-01T23:24:51.488Z,102114.06
2023-02-01T23:27:19.191Z,102114.25
2023-02-01T23:29:46.888Z,102113.25
2023-02-01T23:32:16.162Z,102111.41
2023-02-01T23:34:45.227Z,102113.44
2023-02-01T23:37:12.958Z,102130.34
2023-02-01T23:39:40.661Z,102126.81
2023-02-01T23:42:08.371Z,102130.50
2023-02-01T23:44:36.062Z,102139.38
2023-02-01T23:47:03.828Z,102131.53
2023-02-01T23:49:31.672Z,102127.84
2023-02-01T23:52:00.714Z,102136.06
2023-02-01T23:54:28.487Z,102122.69
2023-02-01T23:56:57.290Z,102131.69
2023-02-01T23:59:26.824Z,102133.53
